KLOZ/LOZ METAR and TAF weather

Enter ICAO airport designator
Station Type Date Time Source
KLOZ METAR 2021/01/27 12:53 UTC NOAA

KLOZ 271253Z AUTO 01007KT 10SM OVC014 02/M02 A3009 RMK AO2 SLP192 T00171017


Station Type Date Time Source
KLOZ Decoded METAR 2021/01/27 12:53 UTC NOAA

LONDON-CORBIN AIRPORT, KY, United States (KLOZ) 37-05N 084-04W 362M
Jan 27, 2021 - 07:53 AM EST / 2021.01.27 1253 UTC
Wind: from the N (010 degrees) at 8 MPH (7 KT):0
Visibility: 10 mile(s):0
Sky conditions: overcast
Temperature: 35.1 F (1.7 C)
Dew Point: 28.9 F (-1.7 C)
Relative Humidity: 78%
Pressure (altimeter): 30.09 in. Hg (1018 hPa)
ob: KLOZ 271253Z AUTO 01007KT 10SM OVC014 02/M02 A3009 RMK AO2 SLP192 T00171017
cycle: 13

Station Type Date Time Source
KLOZ TAF 2021/01/27 12:51 UTC NOAA

TAF KLOZ 271149Z 2712/2812 03006KT P6SM BKN015
FM272100 36008KT P6SM VCSH OVC015
FM272300 01007KT 2SM -SNRA OVC010
FM280200 34009KT 1 1/2SM -SN OVC010
FM280500 34010KT P6SM VCSH BKN009
FM280800 34009KT P6SM BKN015

Example: see airport list